createdAt,value
2022-09-05T00:01:53.406Z,101643.13
2022-09-05T00:04:37.962Z,101653.09
2022-09-05T00:07:31.225Z,101642.28
2022-09-05T00:10:22.426Z,101639.34
2022-09-05T00:13:07.069Z,101637.38
2022-09-05T00:15:37.409Z,101641.69
2022-09-05T00:24:17.136Z,101630.69
2022-09-05T00:24:22.578Z,101640.66
2022-09-05T00:24:42.148Z,101637.91
2022-09-05T00:27:24.043Z,101634.16
2022-09-05T00:31:06.226Z,101641.69
2022-09-05T00:33:26.088Z,101642.81
2022-09-05T00:36:16.033Z,101639.03
2022-09-05T00:38:56.942Z,101644.03
2022-09-05T00:41:24.158Z,101642.41
2022-09-05T00:43:52.425Z,101650.22
2022-09-05T00:46:25.358Z,101644.53
2022-09-05T00:49:23.333Z,101643.72
2022-09-05T00:52:10.266Z,101645.13
2022-09-05T00:55:02.288Z,101647.69
2022-09-05T00:57:46.827Z,101643.31
2022-09-05T01:00:19.962Z,101647.53
2022-09-05T01:03:02.868Z,101646.50
2022-09-05T01:05:59.726Z,101643.03
2022-09-05T01:08:54.068Z,101643.84
2022-09-05T01:11:32.489Z,101652.09
2022-09-05T01:14:21.490Z,101646.81
2022-09-05T01:16:54.027Z,101652.09
2022-09-05T01:20:18.588Z,101645.78
2022-09-05T01:23:24.598Z,101642.63
2022-09-05T01:26:24.938Z,101639.66
2022-09-05T01:29:17.128Z,101644.03
2022-09-05T01:32:11.779Z,101640.38
2022-09-05T01:34:50.365Z,101636.06
2022-09-05T01:37:33.062Z,101642.88
2022-09-05T01:40:22.456Z,101624.97
2022-09-05T01:43:20.491Z,101634.47
2022-09-05T01:46:11.669Z,101635.16
2022-09-05T01:48:53.403Z,101635.53
2022-09-05T01:51:41.443Z,101637.16
2022-09-05T01:54:24.941Z,101644.69
2022-09-05T01:57:12.841Z,101633.19
2022-09-05T01:59:54.726Z,101633.00
2022-09-05T02:02:59.052Z,101634.88
2022-09-05T02:05:53.369Z,101639.56
2022-09-05T02:08:47.387Z,101638.53
2022-09-05T02:11:14.838Z,101644.47
2022-09-05T02:13:52.451Z,101643.81
2022-09-05T02:16:44.413Z,101646.09
2022-09-05T02:19:22.382Z,101645.44
2022-09-05T02:22:18.045Z,101642.56
2022-09-05T02:24:59.833Z,101646.63
2022-09-05T02:28:04.209Z,101641.97
2022-09-05T02:30:55.787Z,101638.03
2022-09-05T02:33:46.897Z,101634.69
2022-09-05T02:36:25.375Z,101637.44
2022-09-05T02:45:01.440Z,101631.81
2022-09-05T02:45:13.054Z,101630.91
2022-09-05T02:45:19.431Z,101626.84
2022-09-05T02:48:09.674Z,101627.69
2022-09-05T02:55:56.095Z,101624.50
2022-09-05T02:57:33.864Z,101625.41
2022-09-05T02:58:08.075Z,101626.25
2022-09-05T03:00:21.570Z,101625.41
2022-09-05T03:03:16.925Z,101628.31
2022-09-05T03:06:12.373Z,101625.31
2022-09-05T03:09:08.080Z,101628.00
2022-09-05T03:12:27.177Z,101616.59
2022-09-05T03:15:22.489Z,101616.38
2022-09-05T03:18:20.847Z,101616.38
2022-09-05T03:21:12.301Z,101618.28
2022-09-05T03:24:10.133Z,101622.59
2022-09-05T03:27:01.374Z,101618.50
2022-09-05T03:30:05.221Z,101626.16
2022-09-05T03:33:02.084Z,101622.06
2022-09-05T03:35:50.379Z,101623.78
2022-09-05T03:39:11.404Z,101619.84
2022-09-05T03:42:05.631Z,101621.41
2022-09-05T03:44:48.637Z,101621.03
2022-09-05T03:47:51.619Z,101628.75
2022-09-05T03:54:36.166Z,101632.19
2022-09-05T03:57:14.718Z,101633.88
2022-09-05T03:57:24.064Z,101631.44
2022-09-05T04:00:09.481Z,101637.72
2022-09-05T04:06:44.164Z,101624.84
2022-09-05T04:08:16.873Z,101633.22
2022-09-05T04:09:08.999Z,101634.09
2022-09-05T04:11:45.386Z,101636.19
2022-09-05T04:14:24.218Z,101638.09
2022-09-05T04:16:58.134Z,101638.88
2022-09-05T04:19:32.928Z,101637.75
2022-09-05T04:22:22.846Z,101641.09
2022-09-05T04:25:02.841Z,101645.75
2022-09-05T04:27:46.451Z,101639.16
2022-09-05T04:30:39.389Z,101636.03
2022-09-05T04:33:22.179Z,101643.31
2022-09-05T04:36:25.831Z,101650.72
2022-09-05T04:39:17.213Z,101645.75
2022-09-05T04:41:51.672Z,101651.78
2022-09-05T04:44:37.505Z,101651.09
2022-09-05T04:47:13.105Z,101653.03
2022-09-05T04:49:55.462Z,101650.00
2022-09-05T04:52:48.907Z,101657.22
2022-09-05T04:55:21.567Z,101662.19
2022-09-05T04:58:10.881Z,101659.59
2022-09-05T05:06:01.443Z,101664.47
2022-09-05T05:06:12.234Z,101661.50
2022-09-05T05:06:46.096Z,101668.56
2022-09-05T05:09:29.352Z,101661.34
2022-09-05T05:18:03.805Z,101666.19
2022-09-05T05:18:08.956Z,101672.13
2022-09-05T05:18:59.547Z,101676.88
2022-09-05T05:21:31.398Z,101680.13
2022-09-05T05:24:22.960Z,101680.72
2022-09-05T05:26:58.517Z,101678.81
2022-09-05T05:29:38.214Z,101680.81
2022-09-05T05:32:06.926Z,101673.09
2022-09-05T05:34:43.077Z,101684.09
2022-09-05T05:37:32.062Z,101682.94
2022-09-05T05:40:09.745Z,101687.19
2022-09-05T05:42:41.514Z,101692.91
2022-09-05T05:45:25.741Z,101693.56
2022-09-05T05:47:59.462Z,101700.19
2022-09-05T05:50:51.810Z,101702.53
2022-09-05T05:53:41.054Z,101693.81
2022-09-05T05:56:18.521Z,101691.66
2022-09-05T05:59:03.397Z,101697.84
2022-09-05T06:01:48.021Z,101703.72
2022-09-05T06:04:52.463Z,101702.63
2022-09-05T06:11:07.399Z,101708.16
2022-09-05T06:14:56.181Z,101705.31
2022-09-05T06:15:04.946Z,101703.38
2022-09-05T06:17:27.942Z,101706.91
2022-09-05T06:22:06.614Z,101704.94
2022-09-05T06:24:11.890Z,101711.22
2022-09-05T06:27:07.481Z,101703.38
2022-09-05T06:29:57.043Z,101716.22
2022-09-05T06:32:41.763Z,101708.78
2022-09-05T06:35:34.157Z,101710.91
2022-09-05T06:38:09.530Z,101706.25
2022-09-05T06:41:07.726Z,101711.44
2022-09-05T06:43:55.494Z,101711.72
2022-09-05T06:46:55.014Z,101717.47
2022-09-05T06:49:41.787Z,101712.16
2022-09-05T06:52:41.840Z,101712.66
2022-09-05T06:55:34.419Z,101723.56
2022-09-05T06:58:22.785Z,101726.28
2022-09-05T07:00:51.571Z,101733.13
2022-09-05T07:03:52.289Z,101730.53
2022-09-05T07:06:46.666Z,101736.94
2022-09-05T07:09:52.837Z,101733.75
2022-09-05T07:12:30.022Z,101731.63
2022-09-05T07:15:22.758Z,101740.63
2022-09-05T07:18:11.329Z,101731.44
2022-09-05T07:21:15.856Z,101733.00
2022-09-05T07:24:10.001Z,101741.78
2022-09-05T07:26:54.245Z,101735.78
2022-09-05T07:29:34.391Z,101739.25
2022-09-05T07:32:03.134Z,101741.81
2022-09-05T07:34:32.170Z,101742.81
2022-09-05T07:37:14.265Z,101742.72
2022-09-05T07:39:55.257Z,101747.94
2022-09-05T07:42:30.241Z,101751.19
2022-09-05T07:45:08.512Z,101754.91
2022-09-05T07:47:40.380Z,101750.06
2022-09-05T07:54:30.050Z,101754.78
2022-09-05T07:56:56.945Z,101749.31
2022-09-05T07:57:01.149Z,101747.94
2022-09-05T07:58:52.686Z,101760.75
2022-09-05T08:01:22.764Z,101754.59
2022-09-05T08:03:57.037Z,101754.28
2022-09-05T08:07:46.437Z,101748.69
2022-09-05T08:10:05.181Z,101746.59
2022-09-05T08:12:31.124Z,101748.59
2022-09-05T08:15:24.566Z,101750.28
2022-09-05T08:18:12.056Z,101742.88
2022-09-05T08:20:59.567Z,101738.81
2022-09-05T08:24:09.148Z,101735.81
2022-09-05T08:27:16.584Z,101734.03
2022-09-05T08:30:25.719Z,101738.97
2022-09-05T08:32:49.729Z,101736.69
2022-09-05T08:35:29.496Z,101731.81
2022-09-05T08:37:57.393Z,101729.72
2022-09-05T08:40:35.966Z,101733.59
2022-09-05T08:46:35.714Z,101733.94
2022-09-05T08:46:40.604Z,101736.22
2022-09-05T08:49:38.715Z,101730.97
2022-09-05T08:52:28.150Z,101728.94
2022-09-05T08:55:23.548Z,101725.66
2022-09-05T08:57:56.039Z,101724.34
2022-09-05T09:00:24.197Z,101723.81
2022-09-05T09:03:04.899Z,101714.44
2022-09-05T09:06:14.089Z,101725.91
2022-09-05T09:09:03.316Z,101720.25
2022-09-05T09:11:36.762Z,101718.47
2022-09-05T09:14:30.905Z,101720.25
2022-09-05T09:17:20.745Z,101709.63
2022-09-05T09:20:07.464Z,101712.28
2022-09-05T09:22:52.311Z,101706.56
2022-09-05T09:25:27.911Z,101708.78
2022-09-05T09:28:49.556Z,101704.81
2022-09-05T09:31:45.648Z,101705.19
2022-09-05T09:34:29.395Z,101704.06
2022-09-05T09:37:05.197Z,101704.84
2022-09-05T09:39:39.814Z,101703.38
2022-09-05T09:42:45.461Z,101696.19
2022-09-05T09:45:22.959Z,101698.88
2022-09-05T09:48:10.742Z,101702.72
2022-09-05T09:51:08.572Z,101697.88
2022-09-05T09:54:03.083Z,101701.81
2022-09-05T09:56:48.079Z,101699.84
2022-09-05T09:59:54.052Z,101702.97
2022-09-05T10:04:36.703Z,101696.25
2022-09-05T10:10:45.542Z,101695.09
2022-09-05T10:10:49.405Z,101692.22
2022-09-05T10:12:39.161Z,101693.59
2022-09-05T10:15:31.311Z,101679.47
2022-09-05T10:18:32.544Z,101669.84
2022-09-05T10:21:16.019Z,101675.31
2022-09-05T10:24:21.661Z,101662.31
2022-09-05T10:27:10.715Z,101666.53
2022-09-05T10:29:46.405Z,101668.94
2022-09-05T10:35:11.522Z,101668.22
2022-09-05T10:35:25.752Z,101662.78
2022-09-05T10:38:07.752Z,101658.66
2022-09-05T10:41:08.113Z,101663.28
2022-09-05T10:43:31.014Z,101647.09
2022-09-05T10:45:57.526Z,101645.41
2022-09-05T10:48:52.886Z,101650.06
2022-09-05T10:51:32.360Z,101641.63
2022-09-05T10:54:29.179Z,101650.81
2022-09-05T10:57:11.587Z,101646.91
2022-09-05T11:01:45.372Z,101640.16
2022-09-05T11:02:57.968Z,101645.00
2022-09-05T11:05:36.119Z,101642.38
2022-09-05T11:08:26.769Z,101635.25
2022-09-05T11:11:34.763Z,101632.56
2022-09-05T11:14:26.560Z,101639.44
2022-09-05T11:17:02.188Z,101637.91
2022-09-05T11:20:08.028Z,101628.66
2022-09-05T11:22:49.090Z,101621.59
2022-09-05T11:25:39.928Z,101617.91
2022-09-05T11:28:18.786Z,101620.13
2022-09-05T11:30:53.285Z,101617.72
2022-09-05T11:39:59.806Z,101607.56
2022-09-05T11:40:07.455Z,101603.50
2022-09-05T11:40:31.417Z,101603.03
2022-09-05T11:43:08.233Z,101603.41
2022-09-05T11:45:58.759Z,101601.41
2022-09-05T11:48:59.698Z,101598.50
2022-09-05T11:52:03.572Z,101602.75
2022-09-05T11:54:55.739Z,101604.50
2022-09-05T11:57:45.854Z,101606.25
2022-09-05T12:00:33.125Z,101604.16
2022-09-05T12:03:58.261Z,101606.00
2022-09-05T12:07:26.391Z,101597.63
2022-09-05T12:10:03.213Z,101595.91
2022-09-05T12:12:54.085Z,101580.66
2022-09-05T12:15:26.068Z,101588.81
2022-09-05T12:18:21.685Z,101584.13
2022-09-05T12:21:10.343Z,101583.56
2022-09-05T12:24:49.802Z,101576.84
2022-09-05T12:27:42.196Z,101567.00
2022-09-05T12:30:04.480Z,101569.84
2022-09-05T12:35:50.065Z,101569.88
2022-09-05T12:41:32.015Z,101554.88
2022-09-05T12:41:42.270Z,101560.47
2022-09-05T12:41:43.000Z,101556.91
2022-09-05T12:44:45.056Z,101557.00
2022-09-05T12:47:19.404Z,101563.59
2022-09-05T12:50:02.671Z,101551.25
2022-09-05T12:52:31.498Z,101554.84
2022-09-05T12:55:05.057Z,101553.16
2022-09-05T13:03:05.943Z,101543.13
2022-09-05T13:03:09.852Z,101546.69
2022-09-05T13:03:30.024Z,101540.13
2022-09-05T13:06:24.911Z,101535.59
2022-09-05T13:08:59.357Z,101540.78
2022-09-05T13:14:56.208Z,101526.63
2022-09-05T13:15:02.695Z,101533.94
2022-09-05T13:17:14.133Z,101517.09
2022-09-05T13:19:51.275Z,101507.53
2022-09-05T13:22:22.559Z,101507.72
2022-09-05T13:25:16.625Z,101505.41
2022-09-05T13:27:56.756Z,101511.41
2022-09-05T13:33:28.404Z,101507.94
2022-09-05T13:38:01.200Z,101510.66
2022-09-05T13:38:14.031Z,101508.06
2022-09-05T13:39:06.876Z,101508.25
2022-09-05T13:41:41.931Z,101495.69
2022-09-05T13:44:27.677Z,101496.88
2022-09-05T13:47:30.649Z,101499.22
2022-09-05T13:50:33.826Z,101498.44
2022-09-05T13:53:15.562Z,101494.75
2022-09-05T13:56:03.348Z,101501.09
2022-09-05T13:58:39.876Z,101491.47
2022-09-05T14:01:37.463Z,101495.22
2022-09-05T14:07:55.797Z,101489.22
2022-09-05T14:10:28.614Z,101486.69
2022-09-05T14:13:07.548Z,101491.16
2022-09-05T14:15:54.360Z,101479.13
2022-09-05T14:18:30.006Z,101487.16
2022-09-05T14:21:17.772Z,101487.47
2022-09-05T14:23:56.793Z,101488.59
2022-09-05T14:26:29.976Z,101485.38
2022-09-05T14:29:26.216Z,101487.50
2022-09-05T14:37:34.374Z,101487.03
2022-09-05T14:38:00.570Z,101474.38
2022-09-05T14:38:28.823Z,101464.88
2022-09-05T14:41:29.128Z,101468.28
2022-09-05T14:44:23.266Z,101477.44
2022-09-05T14:47:35.340Z,101466.38
2022-09-05T14:50:13.619Z,101472.09
2022-09-05T14:57:23.546Z,101464.03
2022-09-05T15:02:39.766Z,101452.72
2022-09-05T15:02:53.586Z,101463.41
2022-09-05T15:05:15.893Z,101469.16
2022-09-05T15:07:47.912Z,101461.84
2022-09-05T15:12:21.379Z,101461.53
2022-09-05T15:13:16.815Z,101446.50
2022-09-05T15:16:02.260Z,101451.72
2022-09-05T15:18:34.049Z,101447.59
2022-09-05T15:21:35.382Z,101451.31
2022-09-05T15:24:04.267Z,101451.44
2022-09-05T15:26:47.249Z,101454.72
2022-09-05T15:29:14.773Z,101454.91
2022-09-05T15:31:41.910Z,101452.41
2022-09-05T15:34:26.490Z,101451.81
2022-09-05T15:36:55.145Z,101451.56
2022-09-05T15:39:35.698Z,101451.69
2022-09-05T15:42:21.484Z,101436.28
2022-09-05T15:45:08.572Z,101439.16
2022-09-05T15:47:38.770Z,101439.06
2022-09-05T15:50:21.842Z,101439.47
2022-09-05T15:52:55.229Z,101419.25
2022-09-05T15:55:26.747Z,101428.25
2022-09-05T15:58:05.819Z,101430.97
2022-09-05T16:00:46.174Z,101429.34
2022-09-05T16:04:27.109Z,101427.47
2022-09-05T16:10:28.383Z,101425.00
2022-09-05T16:10:41.440Z,101421.78
2022-09-05T16:12:16.666Z,101425.06
2022-09-05T16:15:19.849Z,101424.91
2022-09-05T16:23:14.715Z,101427.13
2022-09-05T16:23:34.265Z,101432.59
2022-09-05T16:23:41.555Z,101411.84
2022-09-05T16:26:30.377Z,101417.06
2022-09-05T16:29:04.001Z,101414.78
2022-09-05T16:31:40.500Z,101411.38
2022-09-05T16:34:16.158Z,101418.50
2022-09-05T16:37:07.851Z,101427.84
2022-09-05T16:39:45.262Z,101416.03
2022-09-05T16:42:46.815Z,101409.72
2022-09-05T16:45:22.939Z,101415.09
2022-09-05T16:48:23.390Z,101407.47
2022-09-05T16:51:13.342Z,101409.31
2022-09-05T16:54:10.296Z,101416.94
2022-09-05T16:56:47.093Z,101408.44
2022-09-05T16:59:19.672Z,101415.75
2022-09-05T17:02:07.504Z,101406.16
2022-09-05T17:05:11.026Z,101413.03
2022-09-05T17:08:02.807Z,101411.75
2022-09-05T17:10:40.834Z,101413.44
2022-09-05T17:13:11.576Z,101410.97
2022-09-05T17:15:51.533Z,101402.38
2022-09-05T17:18:24.504Z,101406.78
2022-09-05T17:20:59.001Z,101414.19
2022-09-05T17:29:15.125Z,101413.38
2022-09-05T17:29:33.612Z,101406.72
2022-09-05T17:32:51.948Z,101410.38
2022-09-05T17:35:46.641Z,101413.81
2022-09-05T17:38:36.298Z,101412.28
2022-09-05T17:41:14.843Z,101424.25
2022-09-05T17:43:42.378Z,101413.66
2022-09-05T17:46:20.429Z,101419.06
2022-09-05T17:48:49.231Z,101420.50
2022-09-05T17:51:34.361Z,101413.84
2022-09-05T17:54:03.053Z,101425.97
2022-09-05T17:56:35.918Z,101420.47
2022-09-05T17:59:28.352Z,101423.53
2022-09-05T18:02:06.836Z,101421.00
2022-09-05T18:04:50.067Z,101425.41
2022-09-05T18:07:19.217Z,101425.13
2022-09-05T18:10:14.885Z,101426.34
2022-09-05T18:15:34.259Z,101426.09
2022-09-05T18:18:05.280Z,101430.91
2022-09-05T18:21:21.365Z,101431.25
2022-09-05T18:23:54.789Z,101434.78
2022-09-05T18:26:24.482Z,101440.34
2022-09-05T18:29:14.699Z,101441.19
2022-09-05T18:31:43.478Z,101443.06
2022-09-05T18:34:14.313Z,101442.38
2022-09-05T18:36:43.737Z,101444.16
2022-09-05T18:39:29.408Z,101442.78
2022-09-05T18:42:33.614Z,101444.31
2022-09-05T18:45:15.091Z,101436.81
2022-09-05T18:48:03.573Z,101448.81
2022-09-05T18:50:37.616Z,101455.28
2022-09-05T18:53:13.287Z,101457.59
2022-09-05T18:56:13.551Z,101462.78
2022-09-05T18:59:10.014Z,101470.56
2022-09-05T19:01:51.016Z,101469.28
2022-09-05T19:04:40.377Z,101468.47
2022-09-05T19:07:17.097Z,101470.22
2022-09-05T19:10:34.820Z,101476.69
2022-09-05T19:13:08.810Z,101474.50
2022-09-05T19:15:52.867Z,101472.63
2022-09-05T19:19:10.004Z,101484.41
2022-09-05T19:21:40.452Z,101482.22
2022-09-05T19:24:11.323Z,101484.53
2022-09-05T19:26:38.530Z,101485.56
2022-09-05T19:35:29.387Z,101491.09
2022-09-05T19:36:54.137Z,101482.31
2022-09-05T19:36:54.642Z,101478.16
2022-09-05T19:37:48.464Z,101486.63
2022-09-05T19:46:15.431Z,101479.72
2022-09-05T19:47:29.585Z,101487.09
2022-09-05T19:47:36.584Z,101481.66
2022-09-05T19:49:11.222Z,101482.91
2022-09-05T19:51:40.949Z,101485.88
2022-09-05T19:54:08.704Z,101479.38
2022-09-05T19:56:45.896Z,101484.94
2022-09-05T19:59:22.670Z,101482.84
2022-09-05T20:01:51.853Z,101486.44
2022-09-05T20:04:20.554Z,101489.97
2022-09-05T20:06:49.459Z,101494.09
2022-09-05T20:09:19.126Z,101480.78
2022-09-05T20:12:00.645Z,101481.94
2022-09-05T20:14:36.646Z,101480.38
2022-09-05T20:17:26.889Z,101481.22
2022-09-05T20:20:15.969Z,101483.53
2022-09-05T20:22:50.671Z,101468.69
2022-09-05T20:25:36.786Z,101481.53
2022-09-05T20:28:10.986Z,101488.72
2022-09-05T20:30:42.917Z,101483.19
2022-09-05T20:33:25.060Z,101484.09
2022-09-05T20:38:28.323Z,101476.78
2022-09-05T20:43:18.672Z,101485.88
2022-09-05T20:43:19.663Z,101488.44
2022-09-05T20:44:48.290Z,101488.59
2022-09-05T20:53:53.503Z,101489.25
2022-09-05T20:54:14.212Z,101480.50
2022-09-05T20:54:24.766Z,101472.72
2022-09-05T20:56:22.451Z,101472.19
2022-09-05T20:58:50.421Z,101471.59
2022-09-05T21:01:24.527Z,101469.34
2022-09-05T21:04:02.679Z,101466.19
2022-09-05T21:06:34.706Z,101469.41
2022-09-05T21:09:14.289Z,101466.00
2022-09-05T21:11:42.610Z,101466.50
2022-09-05T21:14:10.600Z,101464.00
2022-09-05T21:16:47.610Z,101461.25
2022-09-05T21:19:27.893Z,101469.16
2022-09-05T21:22:04.867Z,101467.88
2022-09-05T21:24:31.566Z,101469.63
2022-09-05T21:27:22.425Z,101474.88
2022-09-05T21:29:58.714Z,101482.72
2022-09-05T21:32:36.273Z,101490.34
2022-09-05T21:35:33.916Z,101478.50
2022-09-05T21:37:53.755Z,101478.34
2022-09-05T21:40:21.315Z,101476.84
2022-09-05T21:47:39.709Z,101471.38
2022-09-05T21:47:43.758Z,101478.22
2022-09-05T21:48:23.817Z,101473.81
2022-09-05T21:50:59.662Z,101464.22
2022-09-05T21:57:00.418Z,101462.47
2022-09-05T21:59:18.403Z,101463.47
2022-09-05T21:59:38.841Z,101459.22
2022-09-05T22:02:13.451Z,101449.63
2022-09-05T22:04:40.989Z,101444.13
2022-09-05T22:07:08.950Z,101439.91
2022-09-05T22:09:35.377Z,101438.94
2022-09-05T22:12:07.337Z,101435.84
2022-09-05T22:14:48.450Z,101444.13
2022-09-05T22:17:14.913Z,101438.63
2022-09-05T22:19:41.355Z,101435.66
2022-09-05T22:22:17.575Z,101437.28
2022-09-05T22:24:50.261Z,101430.47
2022-09-05T22:27:19.817Z,101431.00
2022-09-05T22:29:48.951Z,101432.47
2022-09-05T22:32:25.864Z,101427.25
2022-09-05T22:35:26.895Z,101433.75
2022-09-05T22:37:49.400Z,101424.03
2022-09-05T22:40:26.418Z,101427.09
2022-09-05T22:43:02.217Z,101424.84
2022-09-05T22:45:30.357Z,101423.50
2022-09-05T22:47:57.917Z,101416.06
2022-09-05T22:50:25.098Z,101422.84
2022-09-05T22:52:52.461Z,101421.72
2022-09-05T22:55:19.022Z,101420.59
2022-09-05T22:57:45.443Z,101409.41
2022-09-05T23:00:12.547Z,101407.13
2022-09-05T23:02:38.969Z,101405.50
2022-09-05T23:05:06.890Z,101402.72
2022-09-05T23:07:33.378Z,101401.25
2022-09-05T23:10:00.143Z,101394.63
2022-09-05T23:12:27.131Z,101392.19
2022-09-05T23:14:54.037Z,101403.09
2022-09-05T23:17:20.608Z,101391.03
2022-09-05T23:19:47.146Z,101399.63
2022-09-05T23:22:13.603Z,101395.78
2022-09-05T23:24:40.200Z,101382.44
2022-09-05T23:27:06.649Z,101382.13
2022-09-05T23:29:33.227Z,101377.22
2022-09-05T23:32:03.004Z,101380.97
2022-09-05T23:34:32.974Z,101365.22
2022-09-05T23:37:00.127Z,101369.28
2022-09-05T23:39:26.860Z,101361.16
2022-09-05T23:41:53.710Z,101364.91
2022-09-05T23:44:20.303Z,101355.00
2022-09-05T23:46:46.705Z,101363.94
2022-09-05T23:49:13.249Z,101356.47
2022-09-05T23:51:39.719Z,101352.56
2022-09-05T23:54:06.209Z,101356.16
2022-09-05T23:56:32.722Z,101355.00
2022-09-05T23:58:59.990Z,101351.59
